2005 KATRINA (2005236N23285)


On this page: IBTrACS data - Map and Plots - Positions - Intensities - Original source data

Summary

Start Aug 23
End Aug 31
Basin NA
LMI 150 kt
Sources hurdat_atl
atcf
In WMO? Yes
Previous storm 2005 JOSE (NA)
Previous in basin 2005 JOSE (NA)
Concurrent storms 2005 GUCHOL (WP)
2005 MAWAR (WP)
2005 HILARY (EP)
2005 KATRINA (NA)
2005 TALIM (WP)
2005 IRWIN (EP)
2005 LEE (NA)
2005 NABI (WP)
Next in basin 2005 LEE (NA)
Next storm 2005 TALIM (WP)

top of page IBTrACS Data: File Access

top of page HURSAT Data: File Access

Image of storm

top of page Plots:

Map of storm track will not appear if FTP is down
Time series of cyclone Maximum Sustained Wind will not appear if FTP is down
Time series of cyclone Minimum Central Pressure will not appear if FTP is down

top of page Track Data:Position

hurdat_atl atcf
Date Lat Lon Lat Lon
2005-08-23 18:00:00 23.1 -75.1 23.1 -75.1
2005-08-24 00:00:00 23.4 -75.7 23.4 -75.7
2005-08-24 06:00:00 23.8 -76.2 23.8 -76.2
2005-08-24 12:00:00 24.5 -76.5 24.5 -76.5
2005-08-24 18:00:00 25.4 -76.9 25.4 -76.9
2005-08-25 00:00:00 26.0 -77.7 26.0 -77.7
2005-08-25 06:00:00 26.1 -78.4 26.1 -78.4
2005-08-25 12:00:00 26.2 -79.0 26.2 -79.0
2005-08-25 18:00:00 26.2 -79.6 26.2 -79.6
2005-08-26 00:00:00 25.9 -80.3 25.9 -80.3
2005-08-26 06:00:00 25.4 -81.3 25.4 -81.3
2005-08-26 12:00:00 25.1 -82.0 25.1 -82.0
2005-08-26 18:00:00 24.9 -82.6 24.9 -82.6
2005-08-27 00:00:00 24.6 -83.3 24.6 -83.3
2005-08-27 06:00:00 24.4 -84.0 24.4 -84.0
2005-08-27 12:00:00 24.4 -84.7 24.4 -84.7
2005-08-27 18:00:00 24.5 -85.3 24.5 -85.3
2005-08-28 00:00:00 24.8 -85.9 24.8 -85.9
2005-08-28 06:00:00 25.2 -86.7 25.2 -86.7
2005-08-28 12:00:00 25.7 -87.7 25.7 -87.7
2005-08-28 18:00:00 26.3 -88.6 26.3 -88.6
2005-08-29 00:00:00 27.2 -89.2 27.2 -89.2
2005-08-29 06:00:00 28.2 -89.6 28.2 -89.6
2005-08-29 12:00:00 29.5 -89.6 29.5 -89.6
2005-08-29 18:00:00 31.1 -89.6 31.1 -89.6
hurdat_atl atcf
2005-08-30 00:00:00 32.6 -89.1 32.6 -89.1
2005-08-30 06:00:00 34.1 -88.6 34.1 -88.6
2005-08-30 12:00:00 35.6 -88.0 35.6 -88.0
2005-08-30 18:00:00 37.0 -87.0 37.0 -87.0
2005-08-31 00:00:00 38.6 -85.3 38.6 -85.3
2005-08-31 06:00:00 40.1 -82.9 40.1 -82.9

top of pageTrack Data:Intensity

hurdat_atl atcf
Date Wind Pres Wind Pres
2005-08-23 18:00:00 30. 1008. 30. 1008.
2005-08-24 00:00:00 30. 1007. 30. 1007.
2005-08-24 06:00:00 30. 1007. 30. 1007.
2005-08-24 12:00:00 35. 1006. 35. 1006.
2005-08-24 18:00:00 40. 1003. 40. 1003.
2005-08-25 00:00:00 45. 1000. 45. 1000.
2005-08-25 06:00:00 50. 997. 50. 997.
2005-08-25 12:00:00 55. 994. 55. 994.
2005-08-25 18:00:00 60. 988. 60. 988.
2005-08-26 00:00:00 70. 983. 70. 983.
2005-08-26 06:00:00 65. 987. 65. 987.
2005-08-26 12:00:00 75. 979. 75. 979.
2005-08-26 18:00:00 85. 968. 85. 968.
2005-08-27 00:00:00 90. 959. 90. 959.
2005-08-27 06:00:00 95. 950. 95. 950.
2005-08-27 12:00:00 100. 942. 100. 942.
2005-08-27 18:00:00 100. 948. 100. 948.
2005-08-28 00:00:00 100. 941. 100. 941.
2005-08-28 06:00:00 125. 930. 125. 930.
2005-08-28 12:00:00 145. 909. 145. 909.
2005-08-28 18:00:00 150. 902. 150. 902.
2005-08-29 00:00:00 140. 905. 140. 905.
2005-08-29 06:00:00 125. 913. 125. 913.
2005-08-29 12:00:00 110. 923. 110. 923.
2005-08-29 18:00:00 80. 948. 80. 948.
hurdat_atl atcf
2005-08-30 00:00:00 50. 961. 50. 961.
2005-08-30 06:00:00 40. 978. 40. 978.
2005-08-30 12:00:00 30. 985. 30. 985.
2005-08-30 18:00:00 30. 990. 30. 990.
2005-08-31 00:00:00 30. 994. 30. 994.
2005-08-31 06:00:00 25. 996. 25. 996.

top of page Links to source data

Source Source file Format
hurdat_atl hurdat2-1851-2015-070616.txt:Line=45707:KATRINA HURDAT
atcf bal122005.dat ATCF